Time;durP1;ratioP1;P1;durP2;ratioP2;P2;SDS_P1;SDS_P2;PMS_P1;PMS_P2;Temp;Humidity;BMP_temperature;BMP_pressure;BME280_temperature;BME280_humidity;BME280_pressure;Samples;Min_cycle;Max_cycle;Signal;HPM_P1;HPM_P2
2023/03/10 00:02:03;;;;;;;2.78;0.10;;;11.70;58.50;;;;;;4980742;28;82058;-71
2023/03/10 00:04:28;;;;;;;1.17;0.10;;;11.70;59.20;;;;;;4981219;28;82365;-71
2023/03/10 00:06:54;;;;;;;1.42;0.08;;;11.80;58.30;;;;;;4979949;28;83753;-72
2023/03/10 00:09:20;;;;;;;1.08;0.00;;;11.80;57.90;;;;;;4966486;28;83230;-72
2023/03/10 00:11:45;;;;;;;0.43;0.00;;;11.80;58.80;;;;;;4970154;28;82329;-71
2023/03/10 00:14:11;;;;;;;1.15;0.20;;;11.80;58.50;;;;;;4980884;28;82343;-71
2023/03/10 00:16:37;;;;;;;1.30;0.03;;;11.80;59.30;;;;;;4980411;28;83008;-72
2023/03/10 00:19:02;;;;;;;3.65;0.10;;;11.70;59.10;;;;;;4985937;28;82399;-71
2023/03/10 00:21:30;;;;;;;0.60;0.10;;;11.80;57.80;;;;;;4983222;28;82374;-72
2023/03/10 00:23:57;;;;;;;1.13;0.10;;;11.70;57.60;;;;;;4973184;28;82505;-71
2023/03/10 00:26:26;;;;;;;2.83;0.20;;;11.80;57.00;;;;;;4979728;28;82426;-70
2023/03/10 00:28:52;;;;;;;2.10;0.30;;;11.80;59.60;;;;;;4980054;28;82384;-72
2023/03/10 00:31:23;;;;;;;2.65;0.70;;;11.50;61.50;;;;;;4978513;28;83400;-71
2023/03/10 00:33:49;;;;;;;4.55;0.25;;;11.10;63.60;;;;;;4968017;28;82199;-71
2023/03/10 00:36:18;;;;;;;3.55;0.25;;;10.70;65.00;;;;;;4978731;28;83032;-71
2023/03/10 00:38:45;;;;;;;2.85;0.20;;;10.40;66.40;;;;;;4987403;28;84081;-71
2023/03/10 00:41:14;;;;;;;2.83;0.25;;;10.20;67.30;;;;;;4999709;28;82389;-72
2023/03/10 00:43:40;;;;;;;3.08;0.20;;;10.00;67.60;;;;;;4987185;28;83643;-70
2023/03/10 00:46:06;;;;;;;3.85;0.30;;;9.90;67.80;;;;;;4977438;28;82365;-70
2023/03/10 00:48:34;;;;;;;1.70;0.17;;;9.90;68.10;;;;;;4979893;28;82123;-69
2023/03/10 00:51:00;;;;;;;2.28;0.30;;;9.80;68.20;;;;;;4980364;28;82017;-71
2023/03/10 00:53:26;;;;;;;5.18;0.30;;;9.80;68.10;;;;;;4980633;28;82372;-70
2023/03/10 00:56:03;;;;;;;2.28;0.10;;;9.80;67.70;;;;;;4988643;28;84332;-72
2023/03/10 00:58:29;;;;;;;;;;;9.80;67.80;;;;;;4996299;28;84453;-72
2023/03/10 01:00:55;;;;;;;1.88;0.20;;;9.90;67.60;;;;;;4975461;28;82270;-72
2023/03/10 01:03:22;;;;;;;2.33;0.20;;;9.90;67.20;;;;;;4983185;28;82523;-72
2023/03/10 01:05:49;;;;;;;4.80;0.20;;;9.90;67.40;;;;;;4978812;28;82566;-72
2023/03/10 01:08:15;;;;;;;1.50;0.10;;;9.90;67.20;;;;;;4989011;28;82311;-71
2023/03/10 01:10:41;;;;;;;3.20;0.10;;;9.80;67.40;;;;;;4989534;28;82019;-71
2023/03/10 01:13:06;;;;;;;2.13;0.20;;;9.70;67.60;;;;;;4981264;28;81730;-71
2023/03/10 01:15:32;;;;;;;2.70;0.20;;;9.70;67.70;;;;;;4992769;28;83309;-71
2023/03/10 01:18:02;;;;;;;2.35;0.20;;;9.70;68.00;;;;;;4979298;28;82472;-72
2023/03/10 01:20:29;;;;;;;3.45;0.30;;;9.60;68.60;;;;;;4977044;28;83241;-70
2023/03/10 01:22:54;;;;;;;1.27;0.13;;;9.50;69.30;;;;;;4976861;28;83821;-71
2023/03/10 01:25:20;;;;;;;1.83;0.28;;;9.40;70.00;;;;;;4997334;28;82812;-73
2023/03/10 01:27:46;;;;;;;3.45;0.20;;;9.20;70.30;;;;;;4972679;28;82888;-71
2023/03/10 01:30:12;;;;;;;3.92;0.20;;;9.20;70.30;;;;;;4974987;28;82420;-73
2023/03/10 01:32:39;;;;;;;1.70;0.17;;;9.20;69.80;;;;;;4972036;28;82549;-72
2023/03/10 01:35:05;;;;;;;1.75;0.10;;;9.30;69.30;;;;;;4984762;28;83517;-71
2023/03/10 01:37:31;;;;;;;1.33;0.10;;;9.50;67.20;;;;;;4993631;28;82323;-73
2023/03/10 01:39:57;;;;;;;2.75;0.10;;;9.70;67.00;;;;;;4966915;28;83168;-71
2023/03/10 01:42:23;;;;;;;1.70;0.10;;;9.90;65.80;;;;;;4976113;28;82260;-70
2023/03/10 01:45:09;;;;;;;2.40;0.10;;;10.00;66.20;;;;;;4972385;28;84017;-71
2023/03/10 01:47:34;;;;;;;2.33;0.30;;;10.00;68.60;;;;;;4983719;28;82415;-71
2023/03/10 01:50:01;;;;;;;3.70;0.25;;;10.00;67.40;;;;;;4978865;28;82380;-72
2023/03/10 01:52:30;;;;;;;2.47;0.30;;;9.90;67.10;;;;;;4975456;28;82463;-70
2023/03/10 01:55:08;;;;;;;2.15;0.10;;;9.90;67.00;;;;;;4987740;28;82631;-71
2023/03/10 01:57:39;;;;;;;2.28;0.10;;;9.90;66.80;;;;;;4981187;28;85560;-72
2023/03/10 02:00:11;;;;;;;4.53;0.40;;;10.00;67.30;;;;;;4981795;28;82617;-69
2023/03/10 02:02:58;;;;;;;2.40;0.13;;;9.90;67.90;;;;;;4983691;28;81664;-71
2023/03/10 02:05:24;;;;;;;3.58;0.30;;;9.80;69.10;;;;;;4996439;28;83476;-71
2023/03/10 02:07:51;;;;;;;2.80;0.40;;;9.70;69.30;;;;;;4995497;28;82010;-71
2023/03/10 02:10:16;;;;;;;1.92;0.13;;;9.50;69.90;;;;;;4987552;28;83291;-71
2023/03/10 02:12:42;;;;;;;3.30;0.15;;;9.40;70.50;;;;;;4981330;28;82367;-71
2023/03/10 02:15:09;;;;;;;3.42;0.20;;;9.30;70.90;;;;;;4971422;28;82913;-70
2023/03/10 02:17:36;;;;;;;2.60;0.20;;;9.20;71.30;;;;;;4982449;28;82819;-71
2023/03/10 02:20:17;;;;;;;2.75;0.30;;;9.20;71.40;;;;;;4986148;28;82405;-71
2023/03/10 02:22:43;;;;;;;2.58;0.20;;;9.20;71.50;;;;;;5002690;28;82423;-71
2023/03/10 02:25:47;;;;;;;3.63;0.22;;;9.20;71.20;;;;;;4984202;28;82679;-71
2023/03/10 02:28:13;;;;;;;2.95;0.20;;;9.20;71.30;;;;;;4971223;28;83022;-71
2023/03/10 02:30:47;;;;;;;4.85;0.30;;;9.20;71.70;;;;;;4981920;28;82629;-70
2023/03/10 02:33:20;;;;;;;2.03;0.20;;;9.30;71.90;;;;;;4982393;28;83024;-72
2023/03/10 02:35:46;;;;;;;3.92;0.20;;;9.20;72.40;;;;;;4981940;28;84516;-71
2023/03/10 02:38:12;;;;;;;2.78;0.28;;;9.10;72.70;;;;;;4975614;28;83751;-73
2023/03/10 02:40:44;;;;;;;2.63;0.20;;;9.10;72.10;;;;;;4981914;28;82636;-71
2023/03/10 02:43:16;;;;;;;2.22;0.17;;;9.00;72.90;;;;;;4979452;28;82361;-72
2023/03/10 02:45:44;;;;;;;3.60;0.30;;;8.90;74.20;;;;;;4973268;28;83618;-70
2023/03/10 02:48:14;;;;;;;2.85;0.30;;;8.90;74.50;;;;;;4989990;28;82827;-71
2023/03/10 02:50:41;;;;;;;;;;;8.90;74.70;;;;;;4983983;28;82630;-70
2023/03/10 02:53:13;;;;;;;3.03;0.20;;;9.00;74.60;;;;;;4990181;28;81483;-72
2023/03/10 02:55:39;;;;;;;1.65;0.20;;;9.10;73.80;;;;;;4983250;28;82780;-71
2023/03/10 02:58:05;;;;;;;4.25;0.20;;;9.20;73.20;;;;;;5002082;28;82311;-70
2023/03/10 03:00:31;;;;;;;2.40;0.30;;;9.20;73.30;;;;;;4980663;28;83507;-71
2023/03/10 03:02:57;;;;;;;3.20;0.40;;;9.20;73.20;;;;;;4984809;28;82127;-71
2023/03/10 03:05:23;;;;;;;2.90;0.20;;;9.10;72.70;;;;;;4995875;28;83627;-73
2023/03/10 03:07:49;;;;;;;3.72;0.22;;;9.00;72.60;;;;;;4990305;28;83352;-71
2023/03/10 03:10:15;;;;;;;3.03;0.20;;;9.00;73.50;;;;;;5001590;28;82247;-72
2023/03/10 03:12:40;;;;;;;4.03;0.20;;;8.90;74.00;;;;;;5002192;28;81897;-72
2023/03/10 03:15:07;;;;;;;3.17;0.30;;;9.00;73.20;;;;;;4984181;28;83152;-70
2023/03/10 03:17:33;;;;;;;3.05;0.20;;;9.00;73.00;;;;;;4971880;28;82365;-71
2023/03/10 03:19:59;;;;;;;2.88;0.35;;;8.90;73.60;;;;;;4985529;28;82411;-71
2023/03/10 03:22:24;;;;;;;2.90;0.30;;;8.90;73.50;;;;;;4987534;28;82322;-73
2023/03/10 03:24:50;;;;;;;2.05;0.20;;;8.90;73.50;;;;;;4981224;28;83883;-72
2023/03/10 03:27:16;;;;;;;2.15;0.30;;;9.00;73.70;;;;;;4973116;28;83881;-72
2023/03/10 03:29:41;;;;;;;2.45;0.20;;;9.00;73.20;;;;;;5000498;28;82183;-71
2023/03/10 03:32:07;;;;;;;2.05;0.20;;;9.10;72.90;;;;;;5001872;28;82318;-69
2023/03/10 03:34:33;;;;;;;2.88;0.28;;;9.20;72.80;;;;;;4983724;28;83127;-70
2023/03/10 03:36:58;;;;;;;2.22;0.28;;;9.20;72.60;;;;;;4990110;28;82467;-71
2023/03/10 03:39:24;;;;;;;4.32;0.20;;;9.30;72.40;;;;;;4975638;28;82221;-71
2023/03/10 03:41:52;;;;;;;4.20;0.15;;;9.40;72.20;;;;;;4994641;28;81601;-72
2023/03/10 03:44:18;;;;;;;2.13;0.20;;;9.40;72.30;;;;;;4994648;28;82716;-71
2023/03/10 03:46:43;;;;;;;2.85;0.22;;;9.40;72.60;;;;;;4980856;28;83016;-71
2023/03/10 03:49:10;;;;;;;1.85;0.17;;;9.40;72.40;;;;;;4980803;28;83957;-70
2023/03/10 03:51:36;;;;;;;1.75;0.20;;;9.50;72.10;;;;;;4977801;28;82405;-71
2023/03/10 03:54:02;;;;;;;1.83;0.20;;;9.40;72.10;;;;;;4978172;28;83306;-71
2023/03/10 03:56:27;;;;;;;1.90;0.20;;;9.40;72.00;;;;;;4984211;28;82723;-70
2023/03/10 03:58:53;;;;;;;4.13;0.22;;;9.50;71.70;;;;;;4980980;28;82209;-71
2023/03/10 04:01:19;;;;;;;2.55;0.20;;;9.50;71.20;;;;;;4981009;28;82516;-72
2023/03/10 04:03:45;;;;;;;1.63;0.22;;;9.60;71.60;;;;;;4978356;28;83078;-71
2023/03/10 04:06:10;;;;;;;2.53;0.17;;;9.50;72.10;;;;;;4968439;28;83127;-71
2023/03/10 04:08:36;;;;;;;3.33;0.13;;;9.50;72.10;;;;;;4969384;28;82474;-71
2023/03/10 04:11:02;;;;;;;2.75;0.30;;;9.50;72.30;;;;;;4966347;28;82204;-72
2023/03/10 04:13:27;;;;;;;2.92;0.43;;;9.50;73.00;;;;;;4986119;28;84052;-71
2023/03/10 04:15:58;;;;;;;2.10;0.20;;;9.50;73.40;;;;;;4989786;28;83320;-72
2023/03/10 04:18:24;;;;;;;1.60;0.20;;;9.60;73.20;;;;;;4980157;28;82271;-72
2023/03/10 04:20:49;;;;;;;3.25;0.20;;;9.60;72.50;;;;;;4980687;28;82280;-71
2023/03/10 04:23:15;;;;;;;3.17;0.20;;;9.70;71.70;;;;;;4981273;28;83579;-69
2023/03/10 04:25:42;;;;;;;2.20;0.13;;;9.70;72.60;;;;;;4985087;28;82463;-71
2023/03/10 04:28:09;;;;;;;2.25;0.20;;;9.80;73.00;;;;;;4977208;28;82301;-71
2023/03/10 04:30:35;;;;;;;2.28;0.20;;;9.70;73.60;;;;;;4963590;28;82983;-73
2023/03/10 04:33:01;;;;;;;3.72;0.20;;;9.80;73.70;;;;;;4977961;28;82629;-71
2023/03/10 04:35:27;;;;;;;2.13;0.20;;;9.90;74.00;;;;;;4962671;28;83401;-71
2023/03/10 04:37:53;;;;;;;2.97;0.20;;;9.80;74.20;;;;;;4966243;28;83802;-70
2023/03/10 04:40:19;;;;;;;3.20;0.55;;;9.80;73.10;;;;;;4973391;28;82507;-71
2023/03/10 04:42:45;;;;;;;2.45;0.13;;;9.80;73.10;;;;;;4968816;28;82633;-70
2023/03/10 04:45:11;;;;;;;2.95;0.20;;;9.80;73.60;;;;;;4972350;28;83878;-71
2023/03/10 04:47:38;;;;;;;1.52;0.20;;;9.80;74.70;;;;;;4967456;28;83627;-70
2023/03/10 04:50:05;;;;;;;4.30;0.28;;;9.80;74.00;;;;;;4966852;28;82410;-72
2023/03/10 04:52:31;;;;;;;2.65;0.20;;;9.90;73.90;;;;;;4968269;28;85033;-71
2023/03/10 04:54:56;;;;;;;5.35;0.20;;;9.90;74.30;;;;;;4972871;28;82590;-73
2023/03/10 04:57:23;;;;;;;2.42;0.13;;;10.00;74.80;;;;;;4983289;28;82399;-71
2023/03/10 04:59:49;;;;;;;1.85;0.20;;;10.00;75.00;;;;;;4978905;28;82548;-72
2023/03/10 05:02:15;;;;;;;1.67;0.20;;;10.10;75.20;;;;;;4965830;28;84226;-71
2023/03/10 05:04:41;;;;;;;2.50;0.30;;;10.00;75.40;;;;;;4969536;28;83282;-70
2023/03/10 05:07:07;;;;;;;3.58;0.30;;;10.00;74.80;;;;;;4980232;28;82155;-70
2023/03/10 05:09:36;;;;;;;4.75;0.40;;;10.10;75.60;;;;;;4980166;28;82438;-71
2023/03/10 05:12:03;;;;;;;2.47;0.20;;;10.00;74.70;;;;;;4968658;28;83485;-71
2023/03/10 05:14:28;;;;;;;3.17;0.30;;;10.00;75.30;;;;;;4993180;28;83590;-71
2023/03/10 05:16:54;;;;;;;2.13;0.30;;;10.00;75.30;;;;;;4972416;28;82770;-72
2023/03/10 05:19:20;;;;;;;3.53;0.20;;;9.90;75.30;;;;;;4978139;28;81554;-71
2023/03/10 05:21:45;;;;;;;4.28;0.30;;;9.90;75.70;;;;;;4999928;28;82986;-70
2023/03/10 05:24:11;;;;;;;2.95;0.20;;;9.80;76.00;;;;;;4988486;28;82648;-71
2023/03/10 05:26:37;;;;;;;3.25;0.30;;;9.70;76.20;;;;;;4999982;28;83237;-71
2023/03/10 05:29:03;;;;;;;3.17;0.30;;;9.60;77.50;;;;;;4984434;28;82074;-71
2023/03/10 05:31:28;;;;;;;5.95;0.28;;;9.50;77.20;;;;;;4978477;28;83000;-73
2023/03/10 05:33:54;;;;;;;4.05;0.32;;;9.40;77.90;;;;;;4979982;28;82642;-71
2023/03/10 05:36:20;;;;;;;4.35;0.20;;;9.30;78.60;;;;;;4984971;28;82003;-72
2023/03/10 05:38:46;;;;;;;4.22;0.22;;;9.20;78.70;;;;;;4992185;28;82211;-71
2023/03/10 05:41:12;;;;;;;4.22;0.30;;;9.20;79.20;;;;;;4987597;28;83140;-74
2023/03/10 05:43:38;;;;;;;4.25;0.20;;;9.20;78.70;;;;;;4989446;28;82229;-71
2023/03/10 05:46:06;;;;;;;3.42;0.20;;;9.20;78.70;;;;;;4977562;28;82857;-71
2023/03/10 05:48:33;;;;;;;3.88;0.40;;;9.20;78.60;;;;;;4972179;28;82466;-71
2023/03/10 05:51:03;;;;;;;3.92;0.70;;;9.10;79.40;;;;;;4972547;28;83996;-74
2023/03/10 05:53:29;;;;;;;2.45;0.13;;;9.10;80.10;;;;;;4972927;28;84810;-71
2023/03/10 05:55:55;;;;;;;3.13;0.17;;;9.00;79.50;;;;;;4974827;28;82245;-72
2023/03/10 05:58:22;;;;;;;5.05;0.30;;;9.00;79.40;;;;;;4975779;28;81948;-73
2023/03/10 06:00:48;;;;;;;4.25;0.28;;;9.10;79.00;;;;;;4976715;28;82852;-72
2023/03/10 06:03:14;;;;;;;2.67;0.22;;;9.20;78.50;;;;;;4970562;28;82456;-72
2023/03/10 06:05:40;;;;;;;2.30;0.10;;;9.30;77.30;;;;;;4967172;28;82731;-71
2023/03/10 06:08:05;;;;;;;2.17;0.15;;;9.40;77.10;;;;;;4967687;28;81910;-72
2023/03/10 06:10:31;;;;;;;4.10;0.17;;;9.50;76.40;;;;;;4970964;28;82874;-73
2023/03/10 06:12:57;;;;;;;2.67;0.20;;;9.60;75.50;;;;;;4976836;28;83031;-71
2023/03/10 06:15:22;;;;;;;1.10;0.10;;;9.70;75.30;;;;;;4971148;28;83357;-71
2023/03/10 06:17:48;;;;;;;2.78;0.20;;;9.80;74.00;;;;;;4968012;28;82613;-71
2023/03/10 06:20:14;;;;;;;3.08;0.10;;;9.90;73.50;;;;;;4967063;28;82933;-71
2023/03/10 06:22:40;;;;;;;1.67;0.38;;;9.90;73.30;;;;;;4971617;28;82240;-70
2023/03/10 06:25:06;;;;;;;2.47;0.32;;;10.00;73.10;;;;;;4968596;28;82381;-71
2023/03/10 06:27:32;;;;;;;1.92;0.20;;;9.90;73.40;;;;;;4970520;28;84044;-71
2023/03/10 06:29:57;;;;;;;2.40;0.20;;;9.90;73.30;;;;;;4965511;28;82498;-73
2023/03/10 06:32:23;;;;;;;4.70;0.30;;;9.90;72.60;;;;;;4966246;28;82596;-71
2023/03/10 06:34:49;;;;;;;3.53;0.20;;;9.90;73.10;;;;;;4976147;28;83730;-74
2023/03/10 06:37:14;;;;;;;3.10;0.60;;;10.00;73.40;;;;;;4976372;28;84877;-72
2023/03/10 06:39:40;;;;;;;3.28;0.25;;;9.90;72.90;;;;;;4969737;28;85145;-70
2023/03/10 06:42:07;;;;;;;2.67;0.20;;;10.10;71.80;;;;;;4966944;28;83194;-70
2023/03/10 06:44:33;;;;;;;4.50;0.20;;;10.20;70.70;;;;;;4974348;28;83615;-71
2023/03/10 06:46:59;;;;;;;2.03;0.20;;;10.50;70.10;;;;;;4978364;28;82203;-72
2023/03/10 06:49:29;;;;;;;3.60;0.10;;;11.20;67.00;;;;;;4975519;28;82666;-72
2023/03/10 06:51:55;;;;;;;3.28;0.20;;;13.30;60.50;;;;;;4984552;28;82395;-70
2023/03/10 06:54:21;;;;;;;1.88;0.20;;;15.30;56.40;;;;;;4990456;28;82731;-73
2023/03/10 06:56:48;;;;;;;2.25;0.20;;;17.20;52.10;;;;;;4991294;28;81616;-73
2023/03/10 06:59:14;;;;;;;4.30;0.22;;;18.50;48.60;;;;;;4976070;28;83595;-71
2023/03/10 07:01:40;;;;;;;2.47;0.30;;;19.50;46.50;;;;;;4985652;28;82397;-72
2023/03/10 07:04:06;;;;;;;1.95;0.30;;;19.90;45.50;;;;;;4981326;28;83208;-72
2023/03/10 07:06:31;;;;;;;1.40;0.20;;;20.50;45.20;;;;;;4975983;28;82869;-72
2023/03/10 07:08:57;;;;;;;2.67;0.43;;;21.00;43.10;;;;;;4978655;28;83114;-71
2023/03/10 07:11:24;;;;;;;2.35;0.40;;;21.80;40.70;;;;;;4984563;28;82482;-74
2023/03/10 07:13:50;;;;;;;4.07;0.65;;;21.90;39.60;;;;;;5001516;28;82147;-72
2023/03/10 07:16:15;;;;;;;2.05;0.38;;;22.60;40.00;;;;;;4972456;28;82392;-73
2023/03/10 07:18:41;;;;;;;2.85;0.30;;;23.90;39.30;;;;;;4993988;28;83171;-72
2023/03/10 07:21:13;;;;;;;1.88;0.68;;;24.80;36.10;;;;;;4980639;28;81847;-72
2023/03/10 07:23:39;;;;;;;3.63;0.60;;;24.90;36.40;;;;;;4978070;28;82262;-73
2023/03/10 07:26:07;;;;;;;1.85;0.57;;;26.20;37.30;;;;;;4977146;28;82189;-72
2023/03/10 07:28:34;;;;;;;2.45;0.75;;;27.70;33.40;;;;;;4971709;28;83981;-72
2023/03/10 07:31:05;;;;;;;2.30;0.65;;;28.10;34.30;;;;;;4971336;28;83770;-73
2023/03/10 07:33:31;;;;;;;1.70;0.57;;;28.90;33.30;;;;;;4980125;28;81989;-73
2023/03/10 07:35:58;;;;;;;2.03;0.55;;;28.70;32.20;;;;;;4975534;28;82497;-72
2023/03/10 07:38:24;;;;;;;2.63;0.73;;;27.90;31.70;;;;;;4973772;28;82592;-72
2023/03/10 07:40:49;;;;;;;1.85;0.70;;;26.30;33.20;;;;;;4977831;28;83422;-72
2023/03/10 07:43:15;;;;;;;3.50;0.45;;;24.70;36.20;;;;;;4974046;28;83844;-72
2023/03/10 07:45:41;;;;;;;1.85;0.50;;;23.60;37.80;;;;;;4977354;28;81493;-73
2023/03/10 07:48:06;;;;;;;4.05;0.80;;;22.80;38.40;;;;;;4979542;28;82905;-71
2023/03/10 07:50:32;;;;;;;3.25;0.73;;;21.30;41.60;;;;;;4970161;28;82926;-72
2023/03/10 07:52:58;;;;;;;2.05;0.30;;;19.80;45.40;;;;;;4977335;28;83219;-72
2023/03/10 07:55:23;;;;;;;2.30;0.40;;;18.40;48.40;;;;;;4975766;28;82437;-71
2023/03/10 07:57:49;;;;;;;1.15;0.20;;;17.10;50.50;;;;;;4969108;28;83376;-70
2023/03/10 08:00:16;;;;;;;3.38;0.30;;;16.60;53.50;;;;;;4971172;28;82638;-70
2023/03/10 08:02:41;;;;;;;5.68;0.52;;;16.00;54.50;;;;;;4974551;28;82171;-71
2023/03/10 08:05:09;;;;;;;3.65;0.32;;;15.40;56.60;;;;;;4977472;28;82451;-71
2023/03/10 08:07:36;;;;;;;1.40;0.22;;;14.80;61.00;;;;;;4974032;28;85050;-71
2023/03/10 08:10:02;;;;;;;1.92;0.30;;;14.40;62.30;;;;;;4981984;28;84974;-71
2023/03/10 08:12:27;;;;;;;1.48;0.30;;;14.30;64.20;;;;;;4975423;28;82633;-71
2023/03/10 08:14:53;;;;;;;2.85;0.30;;;14.00;64.80;;;;;;4999533;28;82402;-72
2023/03/10 08:17:19;;;;;;;2.95;0.28;;;14.00;66.20;;;;;;4999241;28;83618;-72
2023/03/10 08:19:44;;;;;;;2.78;0.30;;;13.90;66.80;;;;;;4985764;28;82699;-71
2023/03/10 08:22:11;;;;;;;1.83;0.30;;;13.80;67.50;;;;;;4999511;28;82307;-70
2023/03/10 08:24:37;;;;;;;1.80;0.30;;;13.80;67.40;;;;;;4975972;28;82312;-70
2023/03/10 08:27:03;;;;;;;2.92;0.35;;;13.80;68.50;;;;;;4980510;28;82263;-69
2023/03/10 08:29:29;;;;;;;2.83;0.40;;;13.60;68.90;;;;;;4976437;28;82824;-71
2023/03/10 08:31:55;;;;;;;1.88;0.20;;;13.30;69.70;;;;;;4980694;28;82693;-70
2023/03/10 08:34:21;;;;;;;1.17;0.22;;;13.10;73.00;;;;;;4981338;28;81283;-70
2023/03/10 08:36:46;;;;;;;3.58;0.10;;;12.90;71.90;;;;;;4981112;28;82462;-70
2023/03/10 08:39:12;;;;;;;1.08;0.30;;;12.60;73.70;;;;;;4993679;28;83192;-71
2023/03/10 08:41:48;;;;;;;1.45;0.10;;;12.40;73.40;;;;;;4968959;28;83308;-71
2023/03/10 08:44:16;;;;;;;1.75;0.10;;;12.40;74.10;;;;;;4979686;28;82506;-71
2023/03/10 08:46:44;;;;;;;0.65;0.00;;;12.30;75.40;;;;;;4979760;28;82359;-72
2023/03/10 08:49:11;;;;;;;1.17;0.10;;;12.10;75.90;;;;;;4979943;28;82515;-72
2023/03/10 08:51:37;;;;;;;0.65;0.00;;;11.90;76.40;;;;;;4979756;28;82120;-71
2023/03/10 08:54:03;;;;;;;1.05;0.10;;;11.70;79.20;;;;;;4993759;28;82267;-71
2023/03/10 08:56:29;;;;;;;1.20;0.10;;;11.60;80.50;;;;;;4978328;28;82783;-71
2023/03/10 08:58:59;;;;;;;0.93;0.10;;;11.30;81.30;;;;;;4979498;28;82217;-71
2023/03/10 09:01:30;;;;;;;2.53;0.10;;;11.50;80.50;;;;;;4980710;28;82455;-69
2023/03/10 09:03:56;;;;;;;2.35;0.10;;;11.70;78.50;;;;;;4980280;28;82513;-69
2023/03/10 09:06:22;;;;;;;2.70;0.10;;;12.00;76.60;;;;;;4998268;28;84026;-72
2023/03/10 09:08:49;;;;;;;1.17;0.10;;;12.30;75.50;;;;;;4999577;28;83823;-71
2023/03/10 09:11:19;;;;;;;1.52;0.03;;;12.50;74.10;;;;;;5000116;28;82371;-74
2023/03/10 09:13:45;;;;;;;1.40;0.00;;;12.50;71.90;;;;;;4990713;28;82017;-71
2023/03/10 09:16:12;;;;;;;0.55;0.00;;;12.40;71.90;;;;;;4984925;28;83242;-71
2023/03/10 09:18:38;;;;;;;0.90;0.00;;;12.20;71.20;;;;;;5000241;28;82447;-70
2023/03/10 09:21:04;;;;;;;0.75;0.00;;;12.10;72.10;;;;;;4999566;28;82324;-71
2023/03/10 09:23:30;;;;;;;0.82;0.00;;;12.00;71.30;;;;;;5000398;28;81846;-72
2023/03/10 09:25:56;;;;;;;0.73;0.00;;;11.80;71.30;;;;;;4999494;28;82671;-71
2023/03/10 09:28:21;;;;;;;1.30;0.10;;;11.70;70.60;;;;;;4984318;28;82400;-71
2023/03/10 09:30:47;;;;;;;3.38;0.00;;;11.90;70.50;;;;;;4988750;28;82938;-72
2023/03/10 09:33:18;;;;;;;1.38;0.00;;;13.50;66.80;;;;;;4973744;28;82385;-72
2023/03/10 09:35:44;;;;;;;1.90;0.10;;;16.00;59.20;;;;;;4979550;28;83545;-71
2023/03/10 09:38:11;;;;;;;1.23;0.00;;;16.20;57.10;;;;;;4980696;28;82360;-71
2023/03/10 09:40:40;;;;;;;1.20;0.10;;;16.00;56.60;;;;;;4989396;28;83729;-71
2023/03/10 09:43:13;;;;;;;4.60;0.10;;;15.50;56.80;;;;;;4992527;28;82744;-71
2023/03/10 09:45:52;;;;;;;1.25;0.00;;;15.10;56.90;;;;;;4984378;28;82685;-71
2023/03/10 09:48:45;;;;;;;1.77;0.08;;;14.60;58.90;;;;;;4973783;28;82367;-71
2023/03/10 09:51:20;;;;;;;2.15;0.10;;;14.20;58.70;;;;;;4979448;28;82238;-70
2023/03/10 09:54:24;;;;;;;0.77;0.03;;;14.00;61.00;;;;;;4990253;28;82032;-71
2023/03/10 09:56:50;;;;;;;1.00;0.00;;;14.20;60.90;;;;;;4979608;28;84439;-73
2023/03/10 09:59:28;;;;;;;1.20;0.00;;;13.90;60.60;;;;;;4968322;28;83284;-72
2023/03/10 10:01:54;;;;;;;4.28;0.10;;;13.90;62.50;;;;;;4964267;28;82214;-73
2023/03/10 10:04:38;;;;;;;4.97;0.10;;;14.00;61.80;;;;;;4965491;28;84085;-71
2023/03/10 10:07:13;;;;;;;0.82;0.10;;;14.00;60.50;;;;;;4976130;28;83052;-70
2023/03/10 10:09:56;;;;;;;1.65;0.05;;;14.20;60.80;;;;;;4978376;28;85430;-72
2023/03/10 10:12:25;;;;;;;1.27;0.10;;;14.60;59.40;;;;;;4971085;28;82328;-71
2023/03/10 10:15:21;;;;;;;0.95;0.10;;;14.90;57.90;;;;;;4974782;28;81900;-73
2023/03/10 10:18:22;;;;;;;0.20;0.00;;;15.40;58.70;;;;;;4971527;28;82325;-71
2023/03/10 10:20:58;;;;;;;0.82;0.00;;;15.60;57.30;;;;;;4968840;28;83295;-71
2023/03/10 10:23:33;;;;;;;0.68;0.10;;;15.80;56.40;;;;;;4975588;28;83034;-69
2023/03/10 10:26:10;;;;;;;0.88;0.10;;;15.90;55.60;;;;;;4980390;28;83650;-72
2023/03/10 10:28:50;;;;;;;1.10;0.00;;;15.70;58.20;;;;;;4982598;28;83102;-71
2023/03/10 10:31:19;;;;;;;0.20;0.00;;;15.70;55.10;;;;;;4997373;28;83146;-72
2023/03/10 10:33:53;;;;;;;0.63;0.00;;;15.50;57.40;;;;;;4977935;28;82400;-71
2023/03/10 10:36:22;;;;;;;1.00;0.10;;;15.40;56.10;;;;;;4980857;28;82234;-72
2023/03/10 10:38:53;;;;;;;0.55;0.00;;;15.30;56.80;;;;;;4984704;28;84021;-71
2023/03/10 10:41:23;;;;;;;2.47;0.00;;;15.10;56.80;;;;;;4988573;28;82950;-71
2023/03/10 10:43:49;;;;;;;0.73;0.00;;;15.10;56.70;;;;;;4980315;28;82186;-71
2023/03/10 10:46:24;;;;;;;1.10;0.00;;;15.10;57.00;;;;;;4982472;28;82502;-71
2023/03/10 10:49:03;;;;;;;2.53;0.00;;;15.20;54.80;;;;;;4986046;28;83574;-72
2023/03/10 10:51:33;;;;;;;0.60;0.10;;;15.30;55.70;;;;;;4995473;28;83832;-71
2023/03/10 10:54:03;;;;;;;1.30;0.00;;;15.30;57.90;;;;;;4983167;28;82305;-73
2023/03/10 10:56:29;;;;;;;0.68;0.15;;;15.30;55.40;;;;;;4978335;28;82640;-71
2023/03/10 10:59:21;;;;;;;0.47;0.00;;;15.10;55.30;;;;;;4995256;28;82483;-72
2023/03/10 11:01:53;;;;;;;0.10;0.00;;;15.00;55.80;;;;;;4999552;28;82787;-72
2023/03/10 11:04:20;;;;;;;0.60;0.00;;;15.00;56.10;;;;;;4984042;28;82703;-72
2023/03/10 11:06:46;;;;;;;0.63;0.10;;;15.10;55.80;;;;;;4985184;28;82708;-71
2023/03/10 11:09:19;;;;;;;2.72;0.10;;;14.90;57.20;;;;;;4977887;28;82578;-71
2023/03/10 11:11:57;;;;;;;0.82;0.10;;;14.80;58.70;;;;;;4979718;28;85325;-71
2023/03/10 11:14:32;;;;;;;1.58;0.10;;;14.60;58.80;;;;;;4969162;28;83199;-72
2023/03/10 11:17:35;;;;;;;1.40;0.00;;;14.40;60.50;;;;;;4969574;28;84040;-72
2023/03/10 11:20:23;;;;;;;1.08;0.10;;;14.50;60.60;;;;;;4980570;28;82957;-73
2023/03/10 11:23:06;;;;;;;0.65;0.00;;;14.50;60.20;;;;;;4975305;28;83206;-70
2023/03/10 11:25:35;;;;;;;1.27;0.00;;;14.80;61.40;;;;;;4975548;28;82497;-72
2023/03/10 11:28:20;;;;;;;0.38;0.03;;;14.80;60.90;;;;;;4977878;28;82327;-71
2023/03/10 11:30:55;;;;;;;0.52;0.10;;;14.70;60.80;;;;;;4965698;28;83741;-72
2023/03/10 11:33:30;;;;;;;0.30;0.00;;;14.70;61.20;;;;;;4974009;28;83299;-70
2023/03/10 11:36:23;;;;;;;0.40;0.10;;;14.60;61.30;;;;;;4969114;28;82031;-71
2023/03/10 11:38:57;;;;;;;0.15;0.00;;;14.50;62.20;;;;;;4974466;28;82805;-71
2023/03/10 11:41:29;;;;;;;1.05;0.00;;;14.30;63.90;;;;;;4987656;28;84501;-71
2023/03/10 11:44:09;;;;;;;1.00;0.00;;;14.00;65.00;;;;;;4986214;28;83234;-71
2023/03/10 11:46:57;;;;;;;1.05;0.10;;;13.90;66.50;;;;;;4977193;28;82157;-70
2023/03/10 11:49:26;;;;;;;0.40;0.00;;;13.80;66.80;;;;;;4977368;28;84165;-71
2023/03/10 11:52:00;;;;;;;0.82;0.10;;;13.70;67.70;;;;;;4976329;28;82618;-71
2023/03/10 11:54:38;;;;;;;1.13;0.20;;;13.70;65.50;;;;;;4970897;28;83633;-71
2023/03/10 11:57:19;;;;;;;0.60;0.00;;;13.60;65.40;;;;;;4984695;28;82401;-71
2023/03/10 11:59:58;;;;;;;0.10;0.00;;;13.40;64.50;;;;;;4972469;28;81600;-73
2023/03/10 12:02:41;;;;;;;1.63;0.00;;;13.40;65.70;;;;;;4975225;28;82933;-73
2023/03/10 12:05:15;;;;;;;2.60;0.10;;;13.40;65.20;;;;;;4965912;28;82908;-71
2023/03/10 12:07:46;;;;;;;3.40;0.20;;;13.40;64.30;;;;;;4971859;28;83411;-70
2023/03/10 12:10:11;;;;;;;1.95;0.10;;;13.40;64.50;;;;;;4980026;28;82205;-71
2023/03/10 12:12:46;;;;;;;1.40;0.00;;;13.40;65.10;;;;;;4967653;28;82607;-69
2023/03/10 12:15:16;;;;;;;2.13;0.13;;;13.60;63.80;;;;;;4972145;28;82550;-70
2023/03/10 12:17:42;;;;;;;0.75;0.00;;;13.90;64.90;;;;;;4984050;28;82628;-71
2023/03/10 12:20:14;;;;;;;2.00;0.00;;;14.10;62.40;;;;;;4975258;28;82552;-72
2023/03/10 12:22:49;;;;;;;0.57;0.03;;;14.20;62.70;;;;;;4967454;28;82412;-72
2023/03/10 12:25:27;;;;;;;2.10;0.17;;;14.30;60.90;;;;;;4975785;28;82192;-72
2023/03/10 12:28:31;;;;;;;0.63;0.00;;;14.60;61.30;;;;;;4974932;28;82223;-72
2023/03/10 12:31:01;;;;;;;0.82;0.00;;;14.70;60.50;;;;;;4963701;28;83795;-76
2023/03/10 12:33:30;;;;;;;0.93;0.20;;;14.80;60.30;;;;;;4961546;28;84766;-73
2023/03/10 12:36:14;;;;;;;0.10;0.00;;;14.70;60.70;;;;;;4962599;28;84289;-74
2023/03/10 12:38:45;;;;;;;0.40;0.00;;;14.50;60.80;;;;;;4966509;28;82577;-73
2023/03/10 12:41:33;;;;;;;5.55;0.00;;;14.50;60.70;;;;;;4968483;28;83219;-73
2023/03/10 12:44:18;;;;;;;0.30;0.00;;;14.50;60.80;;;;;;4965300;28;83083;-73
2023/03/10 12:47:21;;;;;;;1.70;0.00;;;14.70;60.30;;;;;;4961908;28;85124;-73
2023/03/10 12:50:13;;;;;;;1.13;0.15;;;15.30;59.80;;;;;;4962444;28;84624;-72
2023/03/10 12:52:45;;;;;;;1.77;0.00;;;15.20;58.30;;;;;;4967931;28;82126;-71
2023/03/10 12:55:20;;;;;;;2.22;0.10;;;15.30;60.00;;;;;;4968030;28;82952;-74
2023/03/10 12:57:52;;;;;;;0.13;0.00;;;15.20;60.70;;;;;;4967164;28;82859;-72
2023/03/10 13:00:28;;;;;;;0.60;0.20;;;15.20;60.00;;;;;;4966142;28;83388;-72
2023/03/10 13:03:09;;;;;;;0.43;0.00;;;15.10;59.10;;;;;;4959446;28;83488;-71